Time;durP1;ratioP1;P1;durP2;ratioP2;P2;SDS_P1;SDS_P2;PMS_P1;PMS_P2;Temp;Humidity;BMP_temperature;BMP_pressure;BME280_temperature;BME280_humidity;BME280_pressure;Samples;Min_cycle;Max_cycle;Signal;HPM_P1;HPM_P2
2023/05/04 00:01:10;;;;;;;6.70;6.10;;;9.60;99.90;;;;;;5069955;28;20238;-37
2023/05/04 00:03:36;;;;;;;6.60;5.67;;;9.50;99.90;;;;;;5037334;28;20208;-40
2023/05/04 00:06:02;;;;;;;6.80;6.10;;;9.60;99.90;;;;;;5070311;28;20188;-37
2023/05/04 00:08:29;;;;;;;7.77;6.13;;;9.60;99.90;;;;;;5061426;28;20182;-37
2023/05/04 00:10:55;;;;;;;8.03;6.33;;;9.60;99.90;;;;;;5058178;28;20208;-37
2023/05/04 00:13:21;;;;;;;8.17;6.63;;;9.50;99.90;;;;;;5056296;28;20197;-40
2023/05/04 00:15:47;;;;;;;8.37;6.40;;;9.50;99.90;;;;;;5050522;28;20178;-38
2023/05/04 00:18:13;;;;;;;7.30;6.43;;;9.40;99.90;;;;;;5053519;28;20174;-38
2023/05/04 00:20:39;;;;;;;7.03;6.33;;;9.40;99.90;;;;;;5068066;28;20568;-37
2023/05/04 00:23:05;;;;;;;7.40;6.70;;;9.40;99.90;;;;;;5042138;28;20212;-37
2023/05/04 00:25:31;;;;;;;7.30;6.50;;;9.40;99.90;;;;;;5033025;28;20185;-37
2023/05/04 00:27:56;;;;;;;9.40;6.70;;;9.30;99.90;;;;;;5063482;28;20185;-37
2023/05/04 00:30:22;;;;;;;8.57;6.97;;;9.30;99.90;;;;;;5055038;28;20198;-37
2023/05/04 00:32:48;;;;;;;8.27;7.47;;;9.30;99.90;;;;;;5050531;28;20252;-38
2023/05/04 00:35:14;;;;;;;11.77;8.87;;;9.30;99.90;;;;;;5044262;28;20182;-37
2023/05/04 00:37:42;;;;;;;8.27;7.47;;;9.20;99.90;;;;;;5041529;28;20230;-38
2023/05/04 00:40:09;;;;;;;7.20;6.50;;;9.20;99.90;;;;;;5048930;28;20245;-38
2023/05/04 00:42:35;;;;;;;8.90;5.77;;;9.20;99.90;;;;;;5066149;28;20189;-37
2023/05/04 00:45:00;;;;;;;7.80;6.20;;;9.20;99.90;;;;;;5035264;28;20177;-37
2023/05/04 00:47:28;;;;;;;7.03;6.33;;;9.20;99.90;;;;;;5064771;28;20260;-38
2023/05/04 00:49:55;;;;;;;6.17;5.57;;;9.20;99.90;;;;;;5048327;28;20215;-37
2023/05/04 00:52:21;;;;;;;8.03;5.50;;;9.20;99.90;;;;;;5037518;28;20273;-37
2023/05/04 00:54:47;;;;;;;6.47;5.87;;;9.10;99.90;;;;;;5060710;28;20181;-37
2023/05/04 00:57:15;;;;;;;7.20;5.87;;;9.00;99.90;;;;;;5053285;28;20181;-37
2023/05/04 00:59:41;;;;;;;6.60;6.00;;;9.00;99.90;;;;;;5070871;28;20169;-37
2023/05/04 01:02:07;;;;;;;6.10;5.50;;;9.00;99.90;;;;;;5056010;28;20180;-38
2023/05/04 01:04:33;;;;;;;6.57;5.93;;;8.90;99.90;;;;;;5055424;28;20210;-37
2023/05/04 01:07:12;;;;;;;7.57;6.33;;;8.80;99.90;;;;;;5071794;28;20189;-37
2023/05/04 01:09:44;;;;;;;7.33;6.53;;;8.80;99.90;;;;;;5058306;28;20200;-37
2023/05/04 01:12:21;;;;;;;9.80;6.80;;;8.80;99.90;;;;;;5044877;28;20189;-37
2023/05/04 01:14:48;;;;;;;10.30;6.97;;;8.70;99.90;;;;;;5068703;28;20201;-37
2023/05/04 01:17:14;;;;;;;9.63;7.63;;;8.70;99.90;;;;;;5055504;28;20204;-36
2023/05/04 01:19:40;;;;;;;8.90;7.40;;;8.70;99.90;;;;;;5050685;28;20252;-38
2023/05/04 01:22:06;;;;;;;8.20;6.73;;;8.70;99.90;;;;;;5072838;28;20260;-37
2023/05/04 01:24:32;;;;;;;8.17;6.40;;;8.60;99.90;;;;;;5071990;28;20197;-37
2023/05/04 01:27:10;;;;;;;6.97;6.27;;;8.60;99.90;;;;;;5069269;28;20208;-36
2023/05/04 01:29:51;;;;;;;7.77;6.97;;;8.60;99.90;;;;;;5048053;28;20182;-37
2023/05/04 01:32:18;;;;;;;9.70;6.83;;;8.50;99.90;;;;;;5073066;28;20184;-36
2023/05/04 01:34:44;;;;;;;9.83;7.83;;;8.50;99.90;;;;;;5071831;28;20182;-38
2023/05/04 01:37:10;;;;;;;11.27;9.30;;;8.50;99.90;;;;;;5071478;28;20212;-37
2023/05/04 01:39:36;;;;;;;11.27;9.70;;;8.40;99.90;;;;;;5071975;28;20185;-37
2023/05/04 01:42:02;;;;;;;13.77;10.67;;;8.40;99.90;;;;;;5071589;28;20188;-37
2023/05/04 01:44:28;;;;;;;11.17;9.57;;;8.40;99.90;;;;;;5068417;28;20201;-37
2023/05/04 01:46:53;;;;;;;9.90;8.37;;;8.40;99.90;;;;;;5064795;28;20185;-37
2023/05/04 01:49:21;;;;;;;9.83;7.97;;;8.40;99.90;;;;;;5070550;28;20185;-37
2023/05/04 01:51:48;;;;;;;9.10;7.27;;;8.30;99.90;;;;;;5049589;28;20304;-39
2023/05/04 01:54:14;;;;;;;7.97;7.17;;;8.30;99.90;;;;;;5071248;28;20204;-37
2023/05/04 01:56:40;;;;;;;9.10;7.77;;;8.30;99.90;;;;;;5071147;28;20186;-36
2023/05/04 01:59:06;;;;;;;9.17;8.10;;;8.30;99.90;;;;;;5069046;28;20276;-37
2023/05/04 02:01:32;;;;;;;9.73;7.27;;;8.30;99.90;;;;;;5067987;28;20193;-37
2023/05/04 02:03:57;;;;;;;7.73;6.80;;;8.20;99.90;;;;;;5087815;28;20236;-37
2023/05/04 02:06:23;;;;;;;7.70;6.90;;;8.20;99.90;;;;;;5065681;28;20251;-37
2023/05/04 02:08:50;;;;;;;7.00;6.30;;;8.10;99.90;;;;;;5069714;28;20202;-37
2023/05/04 02:11:16;;;;;;;7.80;6.87;;;8.10;99.90;;;;;;5051710;28;20287;-37
2023/05/04 02:13:42;;;;;;;8.70;6.50;;;8.00;99.90;;;;;;5070899;28;20291;-37
2023/05/04 02:16:08;;;;;;;9.83;7.10;;;8.00;99.90;;;;;;5054856;28;20191;-36
2023/05/04 02:18:33;;;;;;;9.27;7.47;;;7.90;99.90;;;;;;5071344;28;20267;-37
2023/05/04 02:20:59;;;;;;;9.03;6.93;;;7.90;99.90;;;;;;5054013;28;20199;-39
2023/05/04 02:23:25;;;;;;;8.63;7.07;;;7.90;99.90;;;;;;5053913;28;20212;-37
2023/05/04 02:25:53;;;;;;;9.50;6.80;;;7.80;99.90;;;;;;5067770;28;20303;-37
2023/05/04 02:28:19;;;;;;;8.70;6.67;;;7.80;99.90;;;;;;5054661;28;20192;-37
2023/05/04 02:30:44;;;;;;;7.83;7.03;;;7.90;99.90;;;;;;5053882;28;20212;-38
2023/05/04 02:33:10;;;;;;;8.90;7.03;;;7.90;99.90;;;;;;5066594;28;20201;-37
2023/05/04 02:35:36;;;;;;;8.47;7.57;;;7.90;99.90;;;;;;5048823;28;20287;-38
2023/05/04 02:38:04;;;;;;;7.97;7.17;;;7.80;99.90;;;;;;5066691;28;20265;-37
2023/05/04 02:40:31;;;;;;;9.50;7.30;;;7.70;99.90;;;;;;5066204;28;20231;-37
2023/05/04 02:42:57;;;;;;;8.93;6.80;;;7.70;99.90;;;;;;5068070;28;20208;-37
2023/05/04 02:45:23;;;;;;;8.40;7.07;;;7.70;99.90;;;;;;5070512;28;20188;-37
2023/05/04 02:47:48;;;;;;;8.63;7.20;;;7.70;99.90;;;;;;5046178;28;20284;-37
2023/05/04 02:50:14;;;;;;;9.67;7.13;;;7.60;99.90;;;;;;5069632;28;20233;-37
2023/05/04 02:52:40;;;;;;;6.83;6.13;;;7.60;99.90;;;;;;5070129;28;20209;-37
2023/05/04 02:55:06;;;;;;;8.27;7.47;;;7.60;99.90;;;;;;5069962;28;20226;-37
2023/05/04 02:57:32;;;;;;;7.73;6.83;;;7.60;99.90;;;;;;5052733;28;20226;-37
2023/05/04 02:59:57;;;;;;;8.83;7.63;;;7.70;99.90;;;;;;5060556;28;20180;-37
2023/05/04 03:02:23;;;;;;;12.33;7.27;;;7.70;99.90;;;;;;5068160;28;20192;-37
2023/05/04 03:04:49;;;;;;;10.07;6.40;;;7.70;99.90;;;;;;5068109;28;20189;-38
2023/05/04 03:07:15;;;;;;;7.27;6.33;;;7.60;99.90;;;;;;5069335;28;20176;-42
2023/05/04 03:09:41;;;;;;;6.37;5.63;;;7.60;99.90;;;;;;5070206;28;20195;-40
2023/05/04 03:12:07;;;;;;;8.17;6.30;;;7.50;99.90;;;;;;5052687;28;20180;-44
2023/05/04 03:14:32;;;;;;;9.17;6.87;;;7.40;99.90;;;;;;5069305;28;20204;-40
2023/05/04 03:16:59;;;;;;;8.83;7.77;;;7.40;99.90;;;;;;5070099;28;20188;-40
2023/05/04 03:19:24;;;;;;;11.57;8.07;;;7.40;99.90;;;;;;5061937;28;20185;-38
2023/05/04 03:21:50;;;;;;;8.43;7.03;;;7.30;99.90;;;;;;5050881;28;20208;-38
2023/05/04 03:24:18;;;;;;;9.80;7.60;;;7.20;99.90;;;;;;5058143;28;20209;-40
2023/05/04 03:26:44;;;;;;;9.80;8.03;;;7.20;99.90;;;;;;5054665;28;20176;-42
2023/05/04 03:29:10;;;;;;;10.97;7.70;;;7.20;99.90;;;;;;5070503;28;20180;-39
2023/05/04 03:31:36;;;;;;;8.60;7.17;;;7.10;99.90;;;;;;5039940;28;20205;-40
2023/05/04 03:34:02;;;;;;;9.43;7.97;;;7.10;99.90;;;;;;5063918;28;20205;-37
2023/05/04 03:36:29;;;;;;;10.13;7.83;;;7.10;99.90;;;;;;5067812;28;20203;-38
2023/05/04 03:38:55;;;;;;;9.60;7.47;;;7.10;99.90;;;;;;5069654;28;20184;-38
2023/05/04 03:41:21;;;;;;;10.23;7.47;;;7.20;99.90;;;;;;5051349;28;20195;-38
2023/05/04 03:43:47;;;;;;;9.60;7.13;;;7.10;99.90;;;;;;5052580;28;20203;-38
2023/05/04 03:46:13;;;;;;;9.20;7.40;;;7.10;99.90;;;;;;5060444;28;20321;-37
2023/05/04 03:48:39;;;;;;;8.70;7.43;;;7.10;99.90;;;;;;5050930;28;20212;-37
2023/05/04 03:51:08;;;;;;;8.20;6.63;;;7.10;99.90;;;;;;5062174;28;20208;-37
2023/05/04 03:53:34;;;;;;;8.03;6.30;;;7.00;99.90;;;;;;5083300;28;20196;-37
2023/05/04 03:56:02;;;;;;;8.13;6.63;;;7.00;99.90;;;;;;5052298;28;20184;-38
2023/05/04 03:58:29;;;;;;;9.87;6.93;;;6.90;99.90;;;;;;5064792;28;20176;-38
2023/05/04 04:00:59;;;;;;;7.37;6.50;;;6.80;99.90;;;;;;5059948;28;20218;-39
2023/05/04 04:03:26;;;;;;;8.97;7.03;;;6.70;99.90;;;;;;5062826;28;20198;-39
2023/05/04 04:05:55;;;;;;;9.10;7.43;;;6.70;99.90;;;;;;5055331;28;20183;-39
2023/05/04 04:08:28;;;;;;;9.17;7.63;;;6.70;99.90;;;;;;5058711;28;20203;-37
2023/05/04 04:10:59;;;;;;;9.33;7.50;;;6.70;99.90;;;;;;5049863;28;20229;-37
2023/05/04 04:13:26;;;;;;;8.63;7.53;;;6.80;99.90;;;;;;5052167;28;20249;-38
2023/05/04 04:16:51;;;;;;;9.63;7.33;;;6.80;99.90;;;;;;5066462;28;20187;-38
2023/05/04 04:19:25;;;;;;;9.83;7.30;;;6.80;99.90;;;;;;5071146;28;20241;-37
2023/05/04 04:21:51;;;;;;;9.53;7.80;;;6.90;99.90;;;;;;5050523;28;20179;-38
2023/05/04 04:24:18;;;;;;;10.13;7.53;;;6.90;99.90;;;;;;5068033;28;20197;-38
2023/05/04 04:26:44;;;;;;;9.80;7.37;;;6.90;99.90;;;;;;5067490;28;20199;-39
2023/05/04 04:29:11;;;;;;;9.27;7.93;;;7.00;99.90;;;;;;5068482;28;20276;-39
2023/05/04 04:31:38;;;;;;;8.17;7.13;;;7.00;99.90;;;;;;5053285;28;20237;-37
2023/05/04 04:34:04;;;;;;;9.07;7.73;;;7.00;99.90;;;;;;5068443;28;20310;-38
2023/05/04 04:36:31;;;;;;;10.17;7.60;;;7.00;99.90;;;;;;5068879;28;20186;-41
2023/05/04 04:38:57;;;;;;;10.20;7.67;;;7.10;99.90;;;;;;5068181;28;20217;-37
2023/05/04 04:41:23;;;;;;;8.23;7.33;;;7.10;99.90;;;;;;5063869;28;20192;-37
2023/05/04 04:43:49;;;;;;;11.13;8.00;;;7.10;99.90;;;;;;5067018;28;20212;-39
2023/05/04 04:46:15;;;;;;;9.70;7.30;;;7.10;99.90;;;;;;5069788;28;20195;-38
2023/05/04 04:48:41;;;;;;;10.83;8.27;;;7.10;99.90;;;;;;5051941;28;20191;-38
2023/05/04 04:51:11;;;;;;;9.77;7.30;;;7.20;99.90;;;;;;5067627;28;20272;-38
2023/05/04 04:53:37;;;;;;;9.47;7.67;;;7.20;99.90;;;;;;5068621;28;20207;-38
2023/05/04 04:56:04;;;;;;;10.50;8.17;;;7.30;99.90;;;;;;5069724;28;20208;-38
2023/05/04 04:58:31;;;;;;;12.90;8.10;;;7.30;99.90;;;;;;5069513;28;20193;-39
2023/05/04 05:00:58;;;;;;;10.13;7.87;;;7.40;99.90;;;;;;5068549;28;20188;-39
2023/05/04 05:03:24;;;;;;;10.13;7.57;;;7.40;99.90;;;;;;5067802;28;20212;-39
2023/05/04 05:05:51;;;;;;;9.63;7.93;;;7.50;99.90;;;;;;5068960;28;20184;-38
2023/05/04 05:08:20;;;;;;;8.70;7.53;;;7.50;99.90;;;;;;5068033;28;20188;-38
2023/05/04 05:10:46;;;;;;;10.13;7.33;;;7.60;99.90;;;;;;5068763;28;20205;-38
2023/05/04 05:13:12;;;;;;;9.23;7.27;;;7.60;99.90;;;;;;5063007;28;20212;-38
2023/05/04 05:15:38;;;;;;;8.93;7.83;;;7.60;99.90;;;;;;5066002;28;20189;-38
2023/05/04 05:18:04;;;;;;;9.67;7.87;;;7.70;99.90;;;;;;5061072;28;20187;-38
2023/05/04 05:20:30;;;;;;;10.50;7.33;;;7.70;99.90;;;;;;5048411;28;20564;-37
2023/05/04 05:22:56;;;;;;;11.47;7.33;;;7.80;99.90;;;;;;5069216;28;20211;-37
2023/05/04 05:25:22;;;;;;;9.63;7.60;;;7.80;99.90;;;;;;5069564;28;20192;-37
2023/05/04 05:27:48;;;;;;;10.43;8.30;;;7.90;99.90;;;;;;5068587;28;20584;-37
2023/05/04 05:30:14;;;;;;;9.40;8.27;;;8.00;99.90;;;;;;5061415;28;20204;-37
2023/05/04 05:32:40;;;;;;;8.67;7.77;;;8.10;99.90;;;;;;5068261;28;20205;-38
2023/05/04 05:35:07;;;;;;;9.90;7.93;;;8.10;99.90;;;;;;5047253;28;20189;-37
2023/05/04 05:37:33;;;;;;;10.20;8.53;;;8.30;99.90;;;;;;5065669;28;20227;-38
2023/05/04 05:39:58;;;;;;;11.53;8.40;;;8.40;99.90;;;;;;5067479;28;20184;-37
2023/05/04 05:42:24;;;;;;;10.30;8.67;;;8.40;99.90;;;;;;5054030;28;20280;-37
2023/05/04 05:44:50;;;;;;;10.73;8.07;;;8.60;99.90;;;;;;5070786;28;20191;-37
2023/05/04 05:47:16;;;;;;;10.03;8.07;;;8.70;99.90;;;;;;5072085;28;20177;-37
2023/05/04 05:49:42;;;;;;;10.47;8.47;;;8.70;99.90;;;;;;5062433;28;20273;-37
2023/05/04 05:52:08;;;;;;;12.37;8.97;;;8.80;99.90;;;;;;5069631;28;20205;-37
2023/05/04 05:54:34;;;;;;;10.70;8.07;;;8.80;99.90;;;;;;5072212;28;20296;-38
2023/05/04 05:57:00;;;;;;;10.30;7.73;;;9.00;99.90;;;;;;5066509;28;20177;-38
2023/05/04 05:59:26;;;;;;;9.63;8.30;;;9.10;99.90;;;;;;5053507;28;20193;-40
2023/05/04 06:01:52;;;;;;;9.40;8.40;;;9.30;99.90;;;;;;5070524;28;20188;-39
2023/05/04 06:04:18;;;;;;;10.43;8.47;;;9.50;99.90;;;;;;5069780;28;20205;-37
2023/05/04 06:06:44;;;;;;;9.67;8.27;;;9.70;99.90;;;;;;5057588;28;20269;-38
2023/05/04 06:09:09;;;;;;;10.17;8.20;;;9.90;99.90;;;;;;5071606;28;20177;-39
2023/05/04 06:11:35;;;;;;;9.10;8.20;;;10.00;99.90;;;;;;5051432;28;20300;-38
2023/05/04 06:14:01;;;;;;;10.40;8.53;;;10.20;99.90;;;;;;5072740;28;20227;-38
2023/05/04 06:16:27;;;;;;;10.93;8.20;;;10.30;99.90;;;;;;5071816;28;20185;-38
2023/05/04 06:18:53;;;;;;;11.57;8.47;;;10.50;99.90;;;;;;5055389;28;20181;-38
2023/05/04 06:21:20;;;;;;;8.90;7.93;;;10.50;99.90;;;;;;5071317;28;20258;-40
2023/05/04 06:23:47;;;;;;;12.17;8.53;;;10.60;99.90;;;;;;5071439;28;20205;-40
2023/05/04 06:26:13;;;;;;;9.43;7.73;;;10.60;99.90;;;;;;5071226;28;20189;-37
2023/05/04 06:28:39;;;;;;;11.77;8.73;;;10.80;99.90;;;;;;5071554;28;20192;-37
2023/05/04 06:31:05;;;;;;;10.87;9.07;;;10.90;99.90;;;;;;5071024;28;20210;-37
2023/05/04 06:33:31;;;;;;;9.90;8.13;;;11.10;99.90;;;;;;5071526;28;20229;-37
2023/05/04 06:35:58;;;;;;;10.13;8.60;;;11.20;99.90;;;;;;5071369;28;20182;-37
2023/05/04 06:38:25;;;;;;;11.03;8.53;;;11.30;99.90;;;;;;5070621;28;20189;-38
2023/05/04 06:40:51;;;;;;;9.10;8.00;;;11.50;99.90;;;;;;5071043;28;20277;-40
2023/05/04 06:43:17;;;;;;;9.03;8.13;;;11.60;99.90;;;;;;5071413;28;20294;-38
2023/05/04 06:45:44;;;;;;;11.77;8.43;;;11.70;99.90;;;;;;5071252;28;20188;-38
2023/05/04 06:48:10;;;;;;;12.27;9.17;;;11.80;99.90;;;;;;5070867;28;20189;-37
2023/05/04 06:50:38;;;;;;;10.33;8.43;;;11.90;99.90;;;;;;5070618;28;20256;-38
2023/05/04 06:53:08;;;;;;;9.60;8.70;;;12.00;99.90;;;;;;5072587;28;20307;-37
2023/05/04 06:55:36;;;;;;;11.27;9.73;;;12.10;99.90;;;;;;5050731;28;20192;-38
2023/05/04 06:58:05;;;;;;;10.37;8.97;;;12.20;99.90;;;;;;5071026;28;20179;-39
2023/05/04 07:00:31;;;;;;;10.43;9.03;;;12.30;99.90;;;;;;5071874;28;20182;-38
2023/05/04 07:02:57;;;;;;;10.63;9.53;;;12.40;99.90;;;;;;5070634;28;20232;-37
2023/05/04 07:05:24;;;;;;;10.40;9.30;;;12.60;99.90;;;;;;5054346;28;20308;-38
2023/05/04 07:07:50;;;;;;;10.97;9.77;;;12.70;99.90;;;;;;5071924;28;20191;-40
2023/05/04 07:10:18;;;;;;;10.57;9.43;;;12.80;99.90;;;;;;5070409;28;20665;-38
2023/05/04 07:12:45;;;;;;;11.53;10.13;;;13.00;99.90;;;;;;5070106;28;20205;-40
2023/05/04 07:15:11;;;;;;;12.40;10.20;;;13.10;99.90;;;;;;5070837;28;20237;-40
2023/05/04 07:17:37;;;;;;;11.30;10.10;;;13.10;99.90;;;;;;5070086;28;20213;-41
2023/05/04 07:20:04;;;;;;;11.30;9.40;;;13.30;99.90;;;;;;5049391;28;20186;-37
2023/05/04 07:22:30;;;;;;;10.87;9.50;;;13.40;99.90;;;;;;5065501;28;20177;-37
2023/05/04 07:24:57;;;;;;;11.13;9.80;;;13.50;99.90;;;;;;5071588;28;20272;-38
2023/05/04 07:27:23;;;;;;;10.43;9.33;;;13.60;99.90;;;;;;5053777;28;20208;-37
2023/05/04 07:29:49;;;;;;;10.70;9.60;;;13.80;99.90;;;;;;5069938;28;20181;-38
2023/05/04 07:32:16;;;;;;;11.57;10.20;;;14.00;99.90;;;;;;5050066;28;20201;-37
2023/05/04 07:34:43;;;;;;;12.10;10.30;;;14.20;99.90;;;;;;5068418;28;20205;-37
2023/05/04 07:37:09;;;;;;;10.77;9.33;;;14.30;99.90;;;;;;5069961;28;20177;-38
2023/05/04 07:39:35;;;;;;;10.00;8.63;;;14.50;99.90;;;;;;5053122;28;20256;-40
2023/05/04 07:42:06;;;;;;;11.07;9.13;;;14.60;99.90;;;;;;5070147;28;20189;-38
2023/05/04 07:44:32;;;;;;;11.10;9.40;;;14.80;99.90;;;;;;5050199;28;20205;-37
2023/05/04 07:46:58;;;;;;;9.77;8.77;;;14.90;99.90;;;;;;5070608;28;20335;-39
2023/05/04 07:49:25;;;;;;;10.20;9.17;;;15.10;99.90;;;;;;5068679;28;20220;-38
2023/05/04 07:51:51;;;;;;;10.03;9.03;;;15.30;99.90;;;;;;5069382;28;20209;-38
2023/05/04 07:54:18;;;;;;;9.53;8.53;;;15.50;99.90;;;;;;5050185;28;20277;-37
2023/05/04 07:56:43;;;;;;;9.80;8.83;;;15.70;99.90;;;;;;5064644;28;20182;-38
2023/05/04 07:59:11;;;;;;;12.03;9.07;;;15.90;99.90;;;;;;5052056;28;20177;-38
2023/05/04 08:01:38;;;;;;;8.80;7.80;;;16.00;99.90;;;;;;5050926;28;20243;-38
2023/05/04 08:04:04;;;;;;;9.00;8.10;;;16.10;99.90;;;;;;5048356;28;20286;-38
2023/05/04 08:06:30;;;;;;;10.30;7.73;;;16.30;99.90;;;;;;5068848;28;20185;-38
2023/05/04 08:08:56;;;;;;;9.97;7.87;;;16.50;99.90;;;;;;5068658;28;20186;-38
2023/05/04 08:11:22;;;;;;;7.77;6.60;;;16.60;99.90;;;;;;5068386;28;20217;-40
2023/05/04 08:13:49;;;;;;;9.07;6.65;;;16.70;99.90;;;;;;5069630;28;20212;-39
2023/05/04 08:16:15;;;;;;;6.90;6.22;;;16.90;99.90;;;;;;5069541;28;20244;-39
2023/05/04 08:18:41;;;;;;;8.35;6.65;;;17.10;99.90;;;;;;5069281;28;20201;-38
2023/05/04 08:21:07;;;;;;;7.20;6.50;;;17.20;99.90;;;;;;5070218;28;20720;-38
2023/05/04 08:23:33;;;;;;;8.60;6.53;;;17.50;99.90;;;;;;5070751;28;20205;-38
2023/05/04 08:26:03;;;;;;;6.68;5.97;;;17.70;99.90;;;;;;5070889;28;20185;-38
2023/05/04 08:28:30;;;;;;;7.38;6.10;;;17.90;99.90;;;;;;5052268;28;20197;-38
2023/05/04 08:30:56;;;;;;;8.70;6.45;;;18.00;99.90;;;;;;5069851;28;20204;-38
2023/05/04 08:33:22;;;;;;;6.95;5.88;;;18.10;99.90;;;;;;5069427;28;20209;-43
2023/05/04 08:35:48;;;;;;;6.82;5.82;;;18.20;99.90;;;;;;5070723;28;20651;-39
2023/05/04 08:38:14;;;;;;;7.07;5.68;;;18.40;99.90;;;;;;5052697;28;20251;-39
2023/05/04 08:40:41;;;;;;;6.85;6.22;;;18.50;99.90;;;;;;5068838;28;20189;-40
2023/05/04 08:43:08;;;;;;;6.53;5.63;;;18.70;99.90;;;;;;5069183;28;20193;-42
2023/05/04 08:45:38;;;;;;;5.88;5.28;;;18.80;99.90;;;;;;5069380;28;20215;-40
2023/05/04 08:48:08;;;;;;;5.65;4.93;;;19.00;99.90;;;;;;5069283;28;20196;-39
2023/05/04 08:50:35;;;;;;;6.32;5.72;;;19.10;99.90;;;;;;5068713;28;20239;-38
2023/05/04 08:53:05;;;;;;;5.85;5.30;;;19.10;99.90;;;;;;5068937;28;20197;-41
2023/05/04 08:55:39;;;;;;;6.30;5.70;;;19.30;99.90;;;;;;5070647;28;20178;-42
2023/05/04 08:58:09;;;;;;;6.65;5.90;;;19.40;99.90;;;;;;5052585;28;20184;-42
2023/05/04 09:00:37;;;;;;;5.70;5.20;;;19.60;99.90;;;;;;5070052;28;20197;-44
2023/05/04 09:03:04;;;;;;;5.40;4.88;;;19.60;99.90;;;;;;5070371;28;20251;-44
2023/05/04 09:05:31;;;;;;;5.43;4.93;;;19.70;99.90;;;;;;5069237;28;20181;-40
2023/05/04 09:07:57;;;;;;;4.95;4.55;;;19.70;99.90;;;;;;5051951;28;20231;-39
2023/05/04 09:10:23;;;;;;;5.30;4.38;;;19.80;99.90;;;;;;5052218;28;20201;-39
2023/05/04 09:12:52;;;;;;;6.35;4.65;;;19.90;99.90;;;;;;5071164;28;20205;-39
2023/05/04 09:15:19;;;;;;;5.47;4.78;;;20.10;99.90;;;;;;5072919;28;20248;-39
2023/05/04 09:17:57;;;;;;;4.72;3.97;;;20.20;99.90;;;;;;5073733;28;20215;-41
2023/05/04 09:20:24;;;;;;;5.47;4.32;;;20.50;99.90;;;;;;5072423;28;20181;-42
2023/05/04 09:23:07;;;;;;;4.65;4.10;;;20.50;99.90;;;;;;5055743;28;20213;-38
2023/05/04 09:25:53;;;;;;;4.57;3.72;;;20.60;99.90;;;;;;5072993;28;20181;-39
2023/05/04 09:28:21;;;;;;;3.85;3.55;;;20.80;99.90;;;;;;5067612;28;20219;-44
2023/05/04 09:30:47;;;;;;;4.50;3.85;;;21.00;99.90;;;;;;5071980;28;20232;-38
2023/05/04 09:33:15;;;;;;;4.57;4.05;;;21.20;99.90;;;;;;5051830;28;20202;-43
2023/05/04 09:35:43;;;;;;;4.28;3.80;;;21.20;99.90;;;;;;5070210;28;20181;-39
2023/05/04 09:38:09;;;;;;;4.72;4.30;;;21.40;99.90;;;;;;5073543;28;20180;-40
2023/05/04 09:40:39;;;;;;;4.05;3.75;;;21.40;99.90;;;;;;5073391;28;20258;-40
2023/05/04 09:43:09;;;;;;;3.95;3.60;;;21.60;99.90;;;;;;5065030;28;20299;-38
2023/05/04 09:45:43;;;;;;;4.28;3.88;;;21.50;99.90;;;;;;5073231;28;20266;-38
2023/05/04 09:48:18;;;;;;;4.18;3.85;;;21.40;99.90;;;;;;5048064;28;20188;-41
2023/05/04 09:50:56;;;;;;;5.70;4.00;;;21.30;99.90;;;;;;5046900;28;20196;-41
2023/05/04 09:53:23;;;;;;;4.65;3.42;;;21.50;99.90;;;;;;5071616;28;20262;-39
2023/05/04 09:55:58;;;;;;;4.13;3.72;;;21.70;99.90;;;;;;5055788;28;20195;-39
2023/05/04 09:58:28;;;;;;;4.65;3.40;;;21.80;99.90;;;;;;5072295;28;20185;-38
2023/05/04 10:00:54;;;;;;;3.50;3.20;;;22.00;99.90;;;;;;5071725;28;20218;-39
2023/05/04 10:03:22;;;;;;;3.50;3.20;;;22.00;99.90;;;;;;5072138;28;20273;-38
2023/05/04 10:05:50;;;;;;;3.03;2.72;;;22.20;99.90;;;;;;5055363;28;20181;-39
2023/05/04 10:08:18;;;;;;;4.30;2.72;;;22.40;99.90;;;;;;5055256;28;20267;-39
2023/05/04 10:10:44;;;;;;;5.63;3.13;;;22.40;99.90;;;;;;5071919;28;20230;-38
2023/05/04 10:13:10;;;;;;;3.80;2.50;;;22.60;99.90;;;;;;5063774;28;20201;-38
2023/05/04 10:15:45;;;;;;;2.70;2.50;;;22.60;99.90;;;;;;5072440;28;20250;-40
2023/05/04 10:18:52;;;;;;;3.25;2.53;;;22.70;99.90;;;;;;5056274;28;20246;-42
2023/05/04 10:21:41;;;;;;;2.78;2.58;;;22.90;99.90;;;;;;5016505;28;20189;-38
2023/05/04 10:24:13;;;;;;;5.55;3.20;;;22.70;99.90;;;;;;5063122;28;20207;-40
2023/05/04 10:26:46;;;;;;;3.08;2.70;;;22.70;99.90;;;;;;5055413;28;20227;-38
2023/05/04 10:29:18;;;;;;;3.05;2.47;;;22.90;99.90;;;;;;5066263;28;20203;-39
2023/05/04 10:31:44;;;;;;;2.80;2.40;;;22.90;99.90;;;;;;5070791;28;20213;-38
2023/05/04 10:34:10;;;;;;;4.45;2.78;;;23.00;99.90;;;;;;5072069;28;20189;-40
2023/05/04 10:36:36;;;;;;;3.00;2.40;;;22.90;99.90;;;;;;5071778;28;20191;-41
2023/05/04 10:39:03;;;;;;;2.47;2.20;;;23.00;99.90;;;;;;5055216;28;20212;-38
2023/05/04 10:41:30;;;;;;;3.35;2.30;;;23.20;99.90;;;;;;5052131;28;20190;-41
2023/05/04 10:44:03;;;;;;;2.33;2.13;;;23.40;99.90;;;;;;5055237;28;20209;-43
2023/05/04 10:46:30;;;;;;;2.50;2.10;;;23.60;99.90;;;;;;5072356;28;20196;-40
2023/05/04 10:48:56;;;;;;;2.85;2.28;;;23.80;99.90;;;;;;5063526;28;20220;-38
2023/05/04 10:51:22;;;;;;;2.50;2.30;;;23.80;99.90;;;;;;5053933;28;20236;-41
2023/05/04 10:53:49;;;;;;;2.30;2.10;;;23.90;99.90;;;;;;5071379;28;20292;-39
2023/05/04 10:56:25;;;;;;;2.53;1.90;;;24.00;99.90;;;;;;5068619;28;20280;-39
2023/05/04 10:58:52;;;;;;;2.40;2.20;;;24.10;99.90;;;;;;5070537;28;20181;-41
2023/05/04 11:01:20;;;;;;;2.42;2.22;;;24.30;99.90;;;;;;5041730;28;20648;-40
2023/05/04 11:03:47;;;;;;;2.50;2.30;;;24.40;99.90;;;;;;5061880;28;20200;-39
2023/05/04 11:06:17;;;;;;;3.13;2.40;;;24.00;99.90;;;;;;5065701;28;20216;-39
2023/05/04 11:08:48;;;;;;;2.85;2.50;;;24.10;99.90;;;;;;5066607;28;20185;-39
2023/05/04 11:11:15;;;;;;;2.25;2.08;;;24.30;99.90;;;;;;5052731;28;20284;-39
2023/05/04 11:13:45;;;;;;;2.75;2.08;;;24.50;99.90;;;;;;5069751;28;20324;-38
2023/05/04 11:16:21;;;;;;;2.40;2.20;;;24.50;99.90;;;;;;5069864;28;20169;-41
2023/05/04 11:18:47;;;;;;;3.17;2.00;;;24.40;99.90;;;;;;5068575;28;20268;-39
2023/05/04 11:21:22;;;;;;;2.15;1.95;;;24.40;99.90;;;;;;5062419;28;20268;-40
2023/05/04 11:23:57;;;;;;;2.20;2.00;;;24.30;99.90;;;;;;5049936;28;20209;-40
2023/05/04 11:26:27;;;;;;;3.33;2.20;;;24.30;99.90;;;;;;5065748;28;20199;-42
2023/05/04 11:29:35;;;;;;;2.70;2.33;;;24.30;99.90;;;;;;5056928;28;20189;-40
2023/05/04 11:32:01;;;;;;;3.25;2.30;;;24.40;99.90;;;;;;5036791;28;20221;-39
2023/05/04 11:34:28;;;;;;;4.72;2.28;;;24.30;99.90;;;;;;5051979;28;20250;-41
2023/05/04 11:36:54;;;;;;;2.55;2.00;;;24.60;99.90;;;;;;5061984;28;20200;-38
2023/05/04 11:39:21;;;;;;;2.70;1.85;;;25.00;99.90;;;;;;5070022;28;20177;-38
2023/05/04 11:41:47;;;;;;;3.33;2.30;;;25.10;99.90;;;;;;5065496;28;20239;-38
2023/05/04 11:44:15;;;;;;;2.15;2.00;;;25.40;99.90;;;;;;5069688;28;20189;-39
2023/05/04 11:46:41;;;;;;;2.40;2.20;;;25.60;99.90;;;;;;5068799;28;20326;-38
2023/05/04 11:49:08;;;;;;;2.50;2.30;;;25.70;99.90;;;;;;5067038;28;20182;-41
2023/05/04 11:51:36;;;;;;;2.75;2.13;;;25.60;99.90;;;;;;5067061;28;20205;-40
2023/05/04 11:54:06;;;;;;;3.95;1.95;;;25.60;99.90;;;;;;5067593;28;20209;-41
2023/05/04 11:56:45;;;;;;;3.17;2.15;;;25.90;99.90;;;;;;5048744;28;20307;-39
2023/05/04 11:59:11;;;;;;;1.88;1.77;;;25.80;99.40;;;;;;5068483;28;20203;-39
2023/05/04 12:01:39;;;;;;;3.42;2.13;;;25.70;99.40;;;;;;5050899;28;20224;-38
2023/05/04 12:04:06;;;;;;;3.50;1.90;;;25.20;99.90;;;;;;5046687;28;20357;-39
2023/05/04 12:06:36;;;;;;;2.33;2.13;;;25.30;99.90;;;;;;5054642;28;20189;-38
2023/05/04 12:09:07;;;;;;;2.60;2.40;;;25.50;99.90;;;;;;5063356;28;20182;-38
2023/05/04 12:11:33;;;;;;;2.15;1.95;;;25.80;99.90;;;;;;5052622;28;20255;-40
2023/05/04 12:14:09;;;;;;;2.35;2.15;;;26.00;99.90;;;;;;5069530;28;20228;-40
2023/05/04 12:16:38;;;;;;;1.88;1.77;;;26.00;98.40;;;;;;5052531;28;20173;-40
2023/05/04 12:19:13;;;;;;;2.30;2.20;;;26.20;99.80;;;;;;5052995;28;20173;-41
2023/05/04 12:21:51;;;;;;;2.30;2.10;;;26.40;99.20;;;;;;5063219;28;20322;-38
2023/05/04 12:24:17;;;;;;;2.25;1.90;;;26.60;98.90;;;;;;5045688;28;20200;-38
2023/05/04 12:26:43;;;;;;;2.30;2.10;;;26.90;99.80;;;;;;5068907;28;20181;-41
2023/05/04 12:29:09;;;;;;;2.38;2.03;;;26.90;98.30;;;;;;5066249;28;20185;-38
2023/05/04 12:31:34;;;;;;;2.88;2.10;;;26.90;98.30;;;;;;5044186;28;20206;-40
2023/05/04 12:34:03;;;;;;;2.95;2.00;;;26.80;98.30;;;;;;5068764;28;20189;-39
2023/05/04 12:36:30;;;;;;;2.08;1.98;;;27.00;99.20;;;;;;5058279;28;20185;-41
2023/05/04 12:38:55;;;;;;;2.08;1.98;;;27.00;97.40;;;;;;5070347;28;20173;-39
2023/05/04 12:41:22;;;;;;;2.30;2.10;;;26.90;98.70;;;;;;5064928;28;20181;-39
2023/05/04 12:43:48;;;;;;;2.22;2.03;;;27.10;97.90;;;;;;5068738;28;20295;-41
2023/05/04 12:46:16;;;;;;;3.03;2.20;;;27.30;98.30;;;;;;5062778;28;20280;-43
2023/05/04 12:48:42;;;;;;;2.97;2.00;;;27.50;96.90;;;;;;5055816;28;20189;-41
2023/05/04 12:51:07;;;;;;;2.30;2.10;;;27.30;97.10;;;;;;5064174;28;20193;-40